Main page
METAR-TAF:

METAR-TAF

Airports :

Benbecula Airport

Benbecula, Scotland

latitude: 57-28N, longitude: 007-22W, elevation: 6 m

Current weather observation

The report was made 11 minutes ago, at 19:50 UTC
Wind 17 kt from the South/Southwest
Temperature 9°C
Humidity 93%
Pressure 1028 hPa
Visibility 10 km or more

METAR: EGPL 221950Z AUTO 21017KT 9999 SCT010/// SCT015/// OVC047/// 09/08 Q1028

Time: 20:01 (20:01 UTC)

Forecast

The report was made 5 hours and 34 minutes ago, at 14:27 UTC
Forecast valid from 22 at 14 UTC to 22 at 15 UTC
Wind 17 kt from the Southwest
Visibility 10 km or more
Broken clouds at a height of 1000 ft
Temporary
from 22 at 14 UTC to 22 at 15 UTC
Wind 20 kt from the Southwest with gusts up to 30 kt
Visibility: 2500 m
Broken clouds at a height of 100 ft
rain, drizzle

TAF: EGPL 221427Z 2214/2215 22017KT 9999 BKN010 TEMPO 2214/2215 23020G30KT 2500 RADZ BKN001

Weather observations and forecasts of more than 4000 airports (METAR and TAF reports).

The available stations are represented by yellow and red dots on the map.

Hover mouse over dot to see the name of the station.

Then click to see weather observations and forecasts.

To change the map : click on the green buttons with a black cross to zoom in, on the green button with a dash to zoom out, or on the green arrows for adjacent maps.


METAR-TAF: